Time;durP1;ratioP1;P1;durP2;ratioP2;P2;SDS_P1;SDS_P2;PMS_P1;PMS_P2;Temp;Humidity;BMP_temperature;BMP_pressure;BME280_temperature;BME280_humidity;BME280_pressure;Samples;Min_cycle;Max_cycle;Signal;HPM_P1;HPM_P2
2022/03/26 00:00:43;;;;;;;43.05;24.13;;;;;;;8.11;89.69;97256.47;5048317;28;20076;-64
2022/03/26 00:03:13;;;;;;;48.60;26.20;;;;;;;8.04;91.58;97256.06;5049316;28;20158;-65
2022/03/26 00:05:43;;;;;;;43.35;24.33;;;;;;;7.95;94.98;97256.75;5050022;28;20088;-64
2022/03/26 00:08:12;;;;;;;45.83;24.85;;;;;;;7.99;93.77;97257.34;5044300;28;20068;-65
2022/03/26 00:10:41;;;;;;;48.05;25.95;;;;;;;7.94;94.92;97257.66;5048717;28;20181;-65
2022/03/26 00:13:09;;;;;;;49.45;25.48;;;;;;;7.78;94.57;97260.53;5047625;28;20484;-65
2022/03/26 00:15:38;;;;;;;45.17;24.90;;;;;;;7.80;96.83;97252.53;5049192;28;20124;-65
2022/03/26 00:18:07;;;;;;;48.58;25.30;;;;;;;7.59;96.95;97258.34;5041557;28;20076;-65
2022/03/26 00:20:37;;;;;;;47.75;26.15;;;;;;;7.52;100.00;97278.09;5049499;28;20088;-64
2022/03/26 00:23:06;;;;;;;49.53;26.15;;;;;;;7.26;100.00;97273.78;5042942;28;20102;-66
2022/03/26 00:25:34;;;;;;;48.97;25.25;;;;;;;7.19;100.00;97273.38;5048405;28;20438;-65
2022/03/26 00:28:02;;;;;;;49.28;25.08;;;;;;;7.09;100.00;97274.94;5046908;28;20079;-65
2022/03/26 00:30:31;;;;;;;51.70;25.48;;;;;;;7.20;100.00;97275.06;5048487;28;20541;-64
2022/03/26 00:32:59;;;;;;;52.65;25.45;;;;;;;7.09;100.00;97283.66;5048114;28;20064;-66
2022/03/26 00:35:27;;;;;;;46.30;23.65;;;;;;;7.23;100.00;97277.47;5049267;28;20115;-66
2022/03/26 00:37:57;;;;;;;46.95;25.05;;;;;;;7.47;100.00;97272.34;5048768;28;20071;-64
2022/03/26 00:40:26;;;;;;;49.28;24.42;;;;;;;7.52;100.00;97272.00;5048515;28;20060;-65
2022/03/26 00:42:54;;;;;;;47.17;23.92;;;;;;;7.52;100.00;97277.25;5048911;28;20068;-64
2022/03/26 00:45:24;;;;;;;47.40;25.17;;;;;;;7.76;100.00;97277.34;5048355;28;20071;-65
2022/03/26 00:47:52;;;;;;;46.50;23.97;;;;;;;7.84;100.00;97280.25;5048612;28;20084;-64
2022/03/26 00:50:20;;;;;;;49.50;24.60;;;;;;;7.78;100.00;97276.31;5045084;28;20498;-65
2022/03/26 00:52:49;;;;;;;51.47;25.10;;;;;;;7.95;98.87;97280.38;5048293;28;20462;-64
2022/03/26 00:55:18;;;;;;;47.83;24.95;;;;;;;7.87;98.26;97282.69;5048352;28;20103;-64
2022/03/26 00:57:47;;;;;;;46.70;24.77;;;;;;;7.79;97.99;97285.84;5048690;28;20600;-65
2022/03/26 01:00:15;;;;;;;45.22;23.83;;;;;;;7.84;98.84;97283.75;5048496;28;20518;-65
2022/03/26 01:02:43;;;;;;;46.88;22.92;;;;;;;7.82;100.00;97280.38;5048879;28;20080;-67
2022/03/26 01:05:12;;;;;;;48.65;23.88;;;;;;;7.75;100.00;97288.81;5048303;28;20072;-65
2022/03/26 01:07:40;;;;;;;49.22;26.42;;;;;;;7.93;99.01;97286.66;5048530;28;20075;-66
2022/03/26 01:10:09;;;;;;;51.95;28.02;;;;;;;7.91;98.78;97286.75;5048272;28;20069;-66
2022/03/26 01:12:39;;;;;;;54.15;25.45;;;;;;;8.05;97.13;97283.16;5046865;28;20083;-64
2022/03/26 01:15:08;;;;;;;47.63;25.93;;;;;;;8.05;95.71;97281.41;5048194;28;20085;-65
2022/03/26 01:17:37;;;;;;;46.40;22.88;;;;;;;8.06;95.29;97283.06;5048995;28;20921;-64
2022/03/26 01:20:08;;;;;;;51.20;24.35;;;;;;;8.21;94.17;97277.66;5048053;28;20068;-65
2022/03/26 01:22:36;;;;;;;48.75;24.50;;;;;;;8.06;96.10;97277.81;5048346;28;20075;-65
2022/03/26 01:25:05;;;;;;;47.58;24.05;;;;;;;8.03;98.00;97272.78;5047959;28;20064;-65
2022/03/26 01:27:33;;;;;;;46.22;24.55;;;;;;;7.91;99.95;97268.38;5049353;28;20353;-64
2022/03/26 01:30:03;;;;;;;46.28;24.13;;;;;;;7.91;99.79;97268.38;5047602;28;20419;-65
2022/03/26 01:32:32;;;;;;;48.88;25.75;;;;;;;7.81;100.00;97269.97;5048604;28;20084;-64
2022/03/26 01:35:00;;;;;;;51.75;26.27;;;;;;;7.79;100.00;97275.34;5048153;28;20060;-65
2022/03/26 01:37:28;;;;;;;46.03;25.05;;;;;;;7.67;100.00;97276.19;5048205;28;20075;-65
2022/03/26 01:39:56;;;;;;;43.30;23.85;;;;;;;7.61;100.00;97274.84;5047536;28;20061;-65
2022/03/26 01:42:25;;;;;;;49.22;25.38;;;;;;;7.63;100.00;97284.38;5048110;28;20060;-64
2022/03/26 01:44:53;;;;;;;45.03;24.73;;;;;;;7.64;100.00;97286.94;5050107;28;20084;-65
2022/03/26 01:47:23;;;;;;;47.75;24.35;;;;;;;7.59;100.00;97283.75;5052210;28;20103;-64
2022/03/26 01:49:51;;;;;;;54.72;25.45;;;;;;;7.71;100.00;97277.69;5051541;28;20056;-64
2022/03/26 01:52:20;;;;;;;50.38;25.00;;;;;;;7.64;100.00;97280.81;5051286;28;20551;-64
2022/03/26 01:54:48;;;;;;;48.05;25.33;;;;;;;7.67;100.00;97280.59;5051373;28;20033;-64
2022/03/26 01:57:17;;;;;;;47.90;25.15;;;;;;;7.52;100.00;97272.84;5051919;28;20103;-65
2022/03/26 01:59:45;;;;;;;49.28;25.10;;;;;;;7.60;100.00;97272.31;5051349;28;20084;-65
2022/03/26 02:02:13;;;;;;;48.15;23.40;;;;;;;7.55;100.00;97267.38;5051603;28;20707;-64
2022/03/26 02:04:43;;;;;;;49.08;26.13;;;;;;;7.52;100.00;97275.47;5051360;28;20104;-65
2022/03/26 02:07:11;;;;;;;46.33;23.60;;;;;;;7.53;100.00;97277.13;5052114;28;20065;-65
2022/03/26 02:09:40;;;;;;;46.92;23.85;;;;;;;7.48;100.00;97276.63;5051218;28;20060;-65
2022/03/26 02:12:25;;;;;;;47.00;24.50;;;;;;;7.53;100.00;97269.25;5051686;28;20151;-66
2022/03/26 02:14:54;;;;;;;46.33;25.25;;;;;;;7.57;100.00;97275.13;5051409;28;20080;-65
2022/03/26 02:17:23;;;;;;;45.38;24.88;;;;;;;7.47;100.00;97264.47;5051422;28;20081;-65
2022/03/26 02:19:53;;;;;;;48.22;24.20;;;;;;;7.50;100.00;97266.00;5049459;28;20064;-63
2022/03/26 02:22:22;;;;;;;47.40;24.50;;;;;;;7.46;100.00;97270.63;5051046;28;20069;-65
2022/03/26 02:24:50;;;;;;;48.65;24.33;;;;;;;7.45;100.00;97273.38;5051158;28;20075;-65
2022/03/26 02:27:21;;;;;;;49.65;25.65;;;;;;;7.32;100.00;97271.56;5050919;28;20083;-64
2022/03/26 02:29:50;;;;;;;48.20;25.17;;;;;;;7.34;100.00;97268.88;5048937;28;20080;-65
2022/03/26 02:32:20;;;;;;;46.80;25.48;;;;;;;7.32;100.00;97274.19;5050675;28;20381;-65
2022/03/26 02:34:49;;;;;;;50.78;24.58;;;;;;;7.36;100.00;97278.31;5051109;28;20569;-64
2022/03/26 02:37:34;;;;;;;51.00;24.85;;;;;;;7.33;100.00;97285.56;5051087;28;20080;-65
2022/03/26 02:40:04;;;;;;;51.23;26.33;;;;;;;7.33;100.00;97280.31;5050775;28;20065;-65
2022/03/26 02:42:33;;;;;;;49.58;25.30;;;;;;;7.20;100.00;97282.91;5050215;28;20876;-64
2022/03/26 02:45:02;;;;;;;48.13;25.52;;;;;;;7.37;100.00;97284.41;5045484;28;20788;-64
2022/03/26 02:47:30;;;;;;;49.75;25.30;;;;;;;7.36;100.00;97285.31;5044844;28;20092;-66
2022/03/26 02:49:58;;;;;;;51.63;26.42;;;;;;;7.24;100.00;97281.75;5044666;28;20061;-67
2022/03/26 02:52:27;;;;;;;47.85;23.83;;;;;;;7.23;100.00;97285.34;5050598;28;20069;-66
2022/03/26 02:54:56;;;;;;;50.75;25.85;;;;;;;7.22;100.00;97281.00;5044153;28;20535;-65
2022/03/26 02:57:25;;;;;;;46.63;24.27;;;;;;;7.15;100.00;97285.00;5045847;28;20061;-64
2022/03/26 02:59:53;;;;;;;52.25;25.20;;;;;;;7.15;100.00;97282.38;5050545;28;20085;-65
2022/03/26 03:02:22;;;;;;;48.60;24.98;;;;;;;7.21;100.00;97287.22;5051056;28;20095;-65
2022/03/26 03:04:50;;;;;;;48.05;25.50;;;;;;;7.19;100.00;97280.38;5050728;28;20049;-65
2022/03/26 03:07:19;;;;;;;52.17;25.63;;;;;;;7.06;100.00;97285.63;5050193;28;20057;-65
2022/03/26 03:09:47;;;;;;;46.28;23.55;;;;;;;7.15;100.00;97279.75;5048134;28;20079;-65
2022/03/26 03:12:17;;;;;;;46.63;25.35;;;;;;;7.17;100.00;97284.91;5050429;28;20068;-65
2022/03/26 03:14:45;;;;;;;43.95;24.45;;;;;;;6.98;100.00;97283.50;5051305;28;20080;-64
2022/03/26 03:17:13;;;;;;;53.03;25.33;;;;;;;7.14;100.00;97286.78;5045624;28;20052;-64
2022/03/26 03:19:41;;;;;;;48.80;25.08;;;;;;;7.11;100.00;97292.22;5049659;28;20072;-64
2022/03/26 03:22:10;;;;;;;46.08;24.25;;;;;;;6.99;100.00;97287.81;5050057;28;20057;-65
2022/03/26 03:24:38;;;;;;;53.40;25.90;;;;;;;7.01;100.00;97295.56;5050028;28;20060;-65
2022/03/26 03:27:07;;;;;;;50.28;25.45;;;;;;;7.00;100.00;97288.66;5051626;28;20085;-65
2022/03/26 03:29:36;;;;;;;53.40;26.75;;;;;;;6.95;100.00;97290.72;5050472;28;20087;-64
2022/03/26 03:32:05;;;;;;;47.20;25.17;;;;;;;7.03;100.00;97294.53;5049669;28;20065;-64
2022/03/26 03:34:34;;;;;;;45.30;23.70;;;;;;;7.03;100.00;97289.28;5049921;28;20068;-65
2022/03/26 03:37:02;;;;;;;49.42;25.77;;;;;;;7.06;100.00;97290.88;5050052;28;20095;-65
2022/03/26 03:39:30;;;;;;;57.33;26.75;;;;;;;7.01;100.00;97288.53;5048841;28;20551;-65
2022/03/26 03:41:59;;;;;;;52.42;26.40;;;;;;;6.85;100.00;97288.75;5049782;28;20081;-64
2022/03/26 03:44:27;;;;;;;49.25;25.63;;;;;;;6.76;100.00;97296.34;5050171;28;20080;-65
2022/03/26 03:46:57;;;;;;;50.22;26.05;;;;;;;6.68;100.00;97291.63;5049453;28;20740;-63
2022/03/26 03:49:26;;;;;;;52.75;25.90;;;;;;;6.30;100.00;97289.69;5049642;28;20670;-64
2022/03/26 03:51:55;;;;;;;50.60;24.83;;;;;;;6.29;100.00;97288.00;5048638;28;20457;-64
2022/03/26 03:54:23;;;;;;;50.03;25.73;;;;;;;6.30;100.00;97284.47;5049544;28;20069;-65
2022/03/26 03:56:51;;;;;;;51.03;26.73;;;;;;;6.30;100.00;97289.69;5049929;28;20089;-65
2022/03/26 03:59:19;;;;;;;49.55;25.13;;;;;;;6.28;100.00;97281.06;5048461;28;20455;-65
2022/03/26 04:01:48;;;;;;;50.42;25.98;;;;;;;6.22;100.00;97278.00;5049529;28;20061;-64
2022/03/26 04:04:18;;;;;;;49.25;24.85;;;;;;;6.15;100.00;97281.00;5049464;28;20072;-65
2022/03/26 04:06:46;;;;;;;50.23;24.87;;;;;;;5.90;100.00;97280.84;5049046;28;20484;-65
2022/03/26 04:09:14;;;;;;;49.03;26.48;;;;;;;5.81;100.00;97277.00;5049077;28;20064;-65
2022/03/26 04:11:43;;;;;;;49.63;26.60;;;;;;;5.80;100.00;97279.75;5049496;28;20060;-64
2022/03/26 04:14:11;;;;;;;47.13;25.15;;;;;;;5.80;100.00;97291.03;5047946;28;20076;-65
2022/03/26 04:16:39;;;;;;;52.60;25.35;;;;;;;5.82;100.00;97286.56;5049093;28;20064;-65
2022/03/26 04:19:07;;;;;;;52.78;26.20;;;;;;;5.69;100.00;97296.94;5049006;28;20061;-66
2022/03/26 04:21:37;;;;;;;49.25;24.25;;;;;;;5.53;100.00;97297.97;5048284;28;20069;-63
2022/03/26 04:24:07;;;;;;;46.42;24.80;;;;;;;5.42;100.00;97298.63;5049040;28;20076;-65
2022/03/26 04:26:36;;;;;;;50.88;24.95;;;;;;;5.36;100.00;97298.97;5051245;28;20681;-65
2022/03/26 04:29:04;;;;;;;51.25;27.15;;;;;;;5.11;100.00;97296.97;5049078;28;20069;-65
2022/03/26 04:31:32;;;;;;;45.17;23.92;;;;;;;5.10;100.00;97298.75;5048250;28;20076;-66
2022/03/26 04:34:01;;;;;;;46.38;24.98;;;;;;;5.20;100.00;97299.06;5048519;28;20068;-65
2022/03/26 04:36:30;;;;;;;51.95;26.13;;;;;;;5.04;100.00;97290.44;5048564;28;20061;-65
2022/03/26 04:39:00;;;;;;;48.10;24.98;;;;;;;5.01;100.00;97301.91;5048444;28;20415;-65
2022/03/26 04:41:28;;;;;;;49.38;25.95;;;;;;;4.90;100.00;97312.97;5048786;28;20076;-65
2022/03/26 04:43:57;;;;;;;46.55;25.90;;;;;;;4.66;100.00;97296.94;5048683;28;20072;-65
2022/03/26 04:46:25;;;;;;;48.90;26.30;;;;;;;4.32;100.00;97305.81;5048464;28;20064;-64
2022/03/26 04:48:53;;;;;;;51.00;25.83;;;;;;;4.13;100.00;97302.53;5048215;28;20064;-66
2022/03/26 04:51:22;;;;;;;47.50;25.15;;;;;;;3.83;100.00;97305.91;5047881;28;20068;-65
2022/03/26 04:53:50;;;;;;;50.70;26.35;;;;;;;4.03;100.00;97307.44;5049245;28;20092;-66
2022/03/26 04:56:20;;;;;;;51.00;26.95;;;;;;;3.72;100.00;97310.84;5048204;28;21528;-65
2022/03/26 04:58:49;;;;;;;51.70;27.27;;;;;;;3.64;100.00;97311.25;5048818;28;20075;-66
2022/03/26 05:01:18;;;;;;;46.28;25.27;;;;;;;3.56;100.00;97311.66;5041838;28;20769;-64
2022/03/26 05:03:47;;;;;;;54.30;26.30;;;;;;;3.52;100.00;97311.91;5048285;28;20068;-65
2022/03/26 05:06:15;;;;;;;57.67;26.42;;;;;;;3.37;100.00;97315.28;5048485;28;20635;-65
2022/03/26 05:08:44;;;;;;;54.45;27.08;;;;;;;3.55;100.00;97311.75;5048068;28;20085;-65
2022/03/26 05:11:13;;;;;;;49.38;26.25;;;;;;;3.63;100.00;97309.56;5048077;28;20456;-65
2022/03/26 05:13:43;;;;;;;46.57;25.33;;;;;;;3.98;100.00;97309.44;5042869;28;20545;-66
2022/03/26 05:16:12;;;;;;;56.35;26.33;;;;;;;4.13;100.00;97312.97;5048295;28;20064;-66
2022/03/26 05:18:40;;;;;;;58.38;27.13;;;;;;;4.17;100.00;97310.13;5048696;28;20071;-66
2022/03/26 05:21:08;;;;;;;51.47;26.55;;;;;;;4.36;100.00;97311.72;5052381;28;20093;-64
2022/03/26 05:23:37;;;;;;;53.65;26.20;;;;;;;4.37;100.00;97308.16;5053148;28;20092;-65
2022/03/26 05:26:05;;;;;;;50.53;26.13;;;;;;;4.61;100.00;97312.03;5053929;28;20096;-64
2022/03/26 05:28:33;;;;;;;46.60;26.42;;;;;;;4.63;100.00;97317.16;5052187;28;20273;-64
2022/03/26 05:31:03;;;;;;;51.38;25.75;;;;;;;4.22;100.00;97323.75;5051108;28;20079;-65
2022/03/26 05:33:31;;;;;;;51.05;26.90;;;;;;;4.41;100.00;97321.00;5052237;28;20056;-65
2022/03/26 05:36:00;;;;;;;48.78;26.92;;;;;;;4.32;100.00;97323.25;5052208;28;20080;-65
2022/03/26 05:38:28;;;;;;;50.92;26.08;;;;;;;4.50;100.00;97333.53;5049665;28;20510;-62
2022/03/26 05:40:56;;;;;;;51.03;26.48;;;;;;;4.64;100.00;97335.34;5052029;28;20529;-66
2022/03/26 05:43:24;;;;;;;47.15;25.25;;;;;;;4.58;100.00;97340.13;5051734;28;20473;-66
2022/03/26 05:45:53;;;;;;;49.22;25.90;;;;;;;4.57;100.00;97336.63;5051935;28;20069;-65
2022/03/26 05:48:22;;;;;;;45.17;25.90;;;;;;;4.87;100.00;97343.69;5051786;28;20067;-64
2022/03/26 05:50:50;;;;;;;54.50;26.23;;;;;;;4.95;100.00;97344.91;5052389;28;20530;-65
2022/03/26 05:53:19;;;;;;;54.05;26.45;;;;;;;5.22;100.00;97339.00;5051030;28;20065;-64
2022/03/26 05:55:47;;;;;;;48.03;25.42;;;;;;;5.14;100.00;97349.94;5052084;28;20065;-66
2022/03/26 05:58:17;;;;;;;53.45;26.23;;;;;;;4.84;100.00;97346.47;5051581;28;20068;-67
2022/03/26 06:00:49;;;;;;;53.77;25.97;;;;;;;4.88;100.00;97351.41;5051454;28;20100;-64
2022/03/26 06:03:18;;;;;;;50.58;27.38;;;;;;;5.33;100.00;97352.28;5051708;28;21040;-65
2022/03/26 06:05:48;;;;;;;45.40;24.77;;;;;;;5.56;100.00;97350.94;5051430;28;20501;-65
2022/03/26 06:08:16;;;;;;;50.90;25.40;;;;;;;5.68;100.00;97352.00;5051130;28;20069;-65
2022/03/26 06:10:44;;;;;;;48.50;25.80;;;;;;;5.57;100.00;97359.63;5051260;28;20475;-65
2022/03/26 06:13:13;;;;;;;52.63;25.98;;;;;;;5.74;100.00;97359.47;5051258;28;20091;-65
2022/03/26 06:15:42;;;;;;;49.20;26.17;;;;;;;5.72;100.00;97363.97;5051815;28;20091;-65
2022/03/26 06:18:12;;;;;;;47.53;25.73;;;;;;;6.20;100.00;97361.94;5051680;28;20095;-65
2022/03/26 06:20:42;;;;;;;52.10;26.05;;;;;;;6.49;100.00;97356.63;5051525;28;20092;-65
2022/03/26 06:23:12;;;;;;;51.00;26.48;;;;;;;6.70;100.00;97354.41;5050342;28;20060;-65
2022/03/26 06:25:40;;;;;;;48.03;25.10;;;;;;;6.68;100.00;97367.63;5051510;28;20075;-65
2022/03/26 06:28:08;;;;;;;49.47;25.95;;;;;;;6.81;100.00;97367.66;5050990;28;20065;-64
2022/03/26 06:30:37;;;;;;;47.83;25.38;;;;;;;7.30;100.00;97364.47;5049466;28;20453;-65
2022/03/26 06:33:05;;;;;;;51.67;25.95;;;;;;;7.58;100.00;97366.09;5051019;28;20081;-64
2022/03/26 06:35:33;;;;;;;56.80;27.48;;;;;;;7.82;100.00;97367.03;5051365;28;20088;-66
2022/03/26 06:38:02;;;;;;;48.90;26.08;;;;;;;7.73;100.00;97372.06;5051100;28;20068;-66
2022/03/26 06:40:31;;;;;;;50.85;27.80;;;;;;;8.11;100.00;97374.69;5050821;28;20067;-67
2022/03/26 06:43:00;;;;;;;52.85;27.30;;;;;;;7.94;100.00;97369.75;5050456;28;20534;-63
2022/03/26 06:45:28;;;;;;;53.63;27.40;;;;;;;8.26;100.00;97372.78;5050855;28;20084;-65
2022/03/26 06:47:56;;;;;;;47.30;26.77;;;;;;;8.39;99.52;97375.41;5049147;28;20114;-66
2022/03/26 06:50:25;;;;;;;54.35;28.10;;;;;;;8.53;96.75;97370.00;5049582;28;20092;-65
2022/03/26 06:52:54;;;;;;;49.85;27.20;;;;;;;8.55;97.15;97379.47;5044252;28;20064;-64
2022/03/26 06:55:23;;;;;;;52.78;27.17;;;;;;;9.04;93.80;97383.81;5044454;28;20066;-67
2022/03/26 06:57:53;;;;;;;51.58;26.92;;;;;;;9.19;87.82;97383.66;5044452;28;20064;-66
2022/03/26 07:00:21;;;;;;;50.70;27.52;;;;;;;9.51;85.43;97381.25;5050540;28;20057;-65
2022/03/26 07:02:49;;;;;;;47.45;25.48;;;;;;;9.67;83.75;97379.16;5046853;28;20064;-66
2022/03/26 07:05:18;;;;;;;51.50;27.48;;;;;;;9.70;86.01;97381.56;5049993;28;20076;-65
2022/03/26 07:07:47;;;;;;;45.88;26.42;;;;;;;9.59;84.11;97376.22;5050362;28;20076;-65
2022/03/26 07:10:16;;;;;;;51.22;27.15;;;;;;;9.67;81.13;97378.28;5050306;28;20068;-64
2022/03/26 07:12:45;;;;;;;49.90;26.60;;;;;;;9.65;79.16;97380.22;5050288;28;20065;-65
2022/03/26 07:15:15;;;;;;;50.67;26.42;;;;;;;9.65;74.19;97380.22;5050558;28;20068;-65
2022/03/26 07:17:43;;;;;;;52.30;27.00;;;;;;;9.73;71.98;97378.66;5050848;28;20088;-65
2022/03/26 07:20:14;;;;;;;51.67;26.23;;;;;;;9.81;70.49;97380.72;5050010;28;20542;-66
2022/03/26 07:22:42;;;;;;;48.03;27.15;;;;;;;9.99;71.36;97391.66;5049518;28;20061;-67
2022/03/26 07:25:11;;;;;;;49.72;25.80;;;;;;;10.42;67.10;97383.06;5052081;28;20515;-65
2022/03/26 07:27:39;;;;;;;47.05;25.10;;;;;;;10.39;66.51;97392.06;5049879;28;20061;-64
2022/03/26 07:30:09;;;;;;;49.20;26.02;;;;;;;10.39;62.77;97381.53;5049930;28;20091;-65
2022/03/26 07:32:39;;;;;;;49.15;25.27;;;;;;;10.58;64.05;97382.69;5050194;28;20083;-66
2022/03/26 07:35:08;;;;;;;51.83;25.02;;;;;;;10.72;61.98;97378.94;5049867;28;20073;-65
2022/03/26 07:37:36;;;;;;;48.05;26.05;;;;;;;11.06;58.46;97385.81;5049845;28;20080;-65
2022/03/26 07:40:05;;;;;;;46.88;25.75;;;;;;;10.85;58.14;97388.41;5049396;28;20069;-64
2022/03/26 07:42:34;;;;;;;45.60;25.55;;;;;;;11.36;58.25;97386.94;5049205;28;20076;-66
2022/03/26 07:45:02;;;;;;;44.83;26.20;;;;;;;11.26;58.03;97383.38;5050065;28;20084;-65
2022/03/26 07:47:30;;;;;;;49.90;26.42;;;;;;;11.21;56.83;97390.81;5050122;28;20080;-65
2022/03/26 07:50:00;;;;;;;44.35;24.05;;;;;;;11.26;58.60;97378.91;5049356;28;20080;-65
2022/03/26 07:52:28;;;;;;;49.30;25.63;;;;;;;11.25;58.45;97386.94;5049116;28;20079;-66
2022/03/26 07:54:56;;;;;;;49.08;26.15;;;;;;;11.71;56.16;97386.63;5049444;28;20083;-66
2022/03/26 07:57:24;;;;;;;49.92;25.52;;;;;;;11.81;56.79;97390.16;5049582;28;20451;-65
2022/03/26 07:59:53;;;;;;;43.22;24.92;;;;;;;12.11;54.36;97384.13;5049009;28;20088;-65
2022/03/26 08:02:21;;;;;;;51.85;26.05;;;;;;;12.05;53.41;97392.56;5049997;28;20080;-65
2022/03/26 08:04:49;;;;;;;48.63;24.92;;;;;;;11.88;52.64;97390.53;5049335;28;20056;-65
2022/03/26 08:07:21;;;;;;;47.58;26.00;;;;;;;12.27;52.32;97394.19;5048755;28;20107;-64
2022/03/26 08:09:50;;;;;;;54.08;26.92;;;;;;;12.41;51.43;97390.38;5041279;28;20071;-65
2022/03/26 08:12:19;;;;;;;46.50;26.00;;;;;;;12.31;51.53;97392.97;5033106;28;20060;-64
2022/03/26 08:14:47;;;;;;;50.13;27.92;;;;;;;12.10;54.21;97395.66;5049924;28;20103;-65
2022/03/26 08:17:16;;;;;;;47.65;26.05;;;;;;;11.99;53.11;97401.03;5049575;28;20079;-66
2022/03/26 08:19:45;;;;;;;51.47;28.25;;;;;;;12.24;52.11;97409.50;5048126;28;20061;-66
2022/03/26 08:22:13;;;;;;;49.10;25.33;;;;;;;12.25;51.20;97397.94;5048794;28;20068;-64
2022/03/26 08:24:43;;;;;;;48.80;27.35;;;;;;;12.79;50.01;97404.69;5049180;28;20077;-66
2022/03/26 08:27:11;;;;;;;45.90;26.30;;;;;;;12.82;49.37;97404.44;5051172;28;20084;-64
2022/03/26 08:29:39;;;;;;;44.70;24.88;;;;;;;12.66;48.57;97410.22;5049127;28;20079;-65
2022/03/26 08:32:08;;;;;;;48.85;26.85;;;;;;;12.54;48.99;97408.66;5046973;28;20530;-64
2022/03/26 08:34:55;;;;;;;47.85;26.30;;;;;;;12.87;49.32;97407.53;5045122;28;20546;-66
2022/03/26 08:37:23;;;;;;;46.00;24.58;;;;;;;13.04;47.47;97412.16;5048975;28;20110;-66
2022/03/26 08:39:52;;;;;;;46.38;25.27;;;;;;;12.68;48.17;97407.47;5048737;28;20060;-65
2022/03/26 08:42:21;;;;;;;44.30;24.48;;;;;;;12.78;47.53;97406.50;5048490;28;20057;-65
2022/03/26 08:44:49;;;;;;;46.08;25.75;;;;;;;12.79;47.56;97413.47;5049264;28;20518;-66
2022/03/26 08:47:17;;;;;;;46.83;25.10;;;;;;;13.54;46.36;97409.44;5028479;28;20493;-67
2022/03/26 08:49:45;;;;;;;49.03;26.88;;;;;;;13.17;46.64;97406.59;5028539;28;20492;-66
2022/03/26 08:52:14;;;;;;;48.05;26.70;;;;;;;13.28;46.38;97417.09;5040099;28;20080;-66
2022/03/26 08:54:48;;;;;;;47.70;24.27;;;;;;;13.23;46.46;97411.34;5044134;28;20068;-65
2022/03/26 08:57:18;;;;;;;50.20;27.27;;;;;;;13.60;46.44;97410.69;5048711;28;20065;-65
2022/03/26 08:59:46;;;;;;;45.33;24.73;;;;;;;13.72;46.09;97411.38;5046250;28;20663;-65
2022/03/26 09:02:15;;;;;;;48.00;25.92;;;;;;;13.76;45.23;97408.31;5048447;28;20079;-64
2022/03/26 09:04:44;;;;;;;47.53;25.63;;;;;;;13.98;44.95;97417.78;5048823;28;20068;-64
2022/03/26 09:07:12;;;;;;;47.70;26.58;;;;;;;14.12;44.61;97416.50;5048546;28;20068;-65
2022/03/26 09:09:41;;;;;;;51.10;26.83;;;;;;;14.04;45.14;97411.06;5047822;28;20076;-67
2022/03/26 09:12:15;;;;;;;47.50;26.80;;;;;;;14.33;44.95;97408.31;5048880;28;20067;-65
2022/03/26 09:14:45;;;;;;;43.45;25.65;;;;;;;14.25;44.96;97417.00;5048578;28;20084;-65
2022/03/26 09:17:13;;;;;;;48.00;28.30;;;;;;;14.34;45.02;97411.81;5047948;28;20068;-67
2022/03/26 09:19:41;;;;;;;49.05;27.15;;;;;;;14.41;44.85;97408.44;5047519;28;20087;-66
2022/03/26 09:22:10;;;;;;;48.42;27.17;;;;;;;14.54;44.19;97410.78;5048031;28;20075;-66
2022/03/26 09:24:39;;;;;;;47.35;26.73;;;;;;;14.81;43.83;97399.34;5048303;28;20452;-64
2022/03/26 09:27:25;;;;;;;52.25;29.80;;;;;;;14.74;40.95;97402.75;5043901;28;20095;-64
2022/03/26 09:29:55;;;;;;;49.67;26.20;;;;;;;15.02;40.55;97393.78;5048014;28;20084;-65
2022/03/26 09:32:23;;;;;;;45.13;25.43;;;;;;;15.26;40.27;97392.38;5048262;28;20088;-66
2022/03/26 09:34:52;;;;;;;46.70;25.50;;;;;;;15.18;41.22;97391.31;5047923;28;20069;-65
2022/03/26 09:37:20;;;;;;;48.50;23.95;;;;;;;15.57;40.31;97390.16;5048404;28;20068;-65
2022/03/26 09:39:48;;;;;;;48.05;27.83;;;;;;;15.24;39.79;97389.84;5048066;28;20075;-64
2022/03/26 09:42:16;;;;;;;41.42;23.90;;;;;;;15.65;39.44;97388.41;5048396;28;20680;-65
2022/03/26 09:44:44;;;;;;;44.40;25.90;;;;;;;15.76;38.65;97398.00;5048447;28;20523;-65
2022/03/26 09:47:15;;;;;;;47.28;27.63;;;;;;;16.05;38.78;97394.22;5048032;28;20079;-64
2022/03/26 09:49:43;;;;;;;45.90;26.80;;;;;;;16.13;38.80;97389.78;5045632;28;20590;-65
2022/03/26 09:52:31;;;;;;;44.80;27.25;;;;;;;15.96;40.02;97389.84;5047148;28;20566;-65
2022/03/26 09:55:00;;;;;;;44.72;25.40;;;;;;;16.02;39.46;97394.53;5047924;28;20061;-65
2022/03/26 09:57:28;;;;;;;52.75;25.88;;;;;;;15.65;40.07;97388.41;5047841;28;20061;-66
2022/03/26 09:59:57;;;;;;;52.47;28.65;;;;;;;16.16;39.79;97396.63;5047460;28;20084;-65
2022/03/26 10:02:27;;;;;;;43.75;25.65;;;;;;;16.11;38.69;97389.13;5048034;28;20084;-65
2022/03/26 10:04:55;;;;;;;49.15;28.23;;;;;;;16.55;38.27;97394.38;5049054;28;20152;-64
2022/03/26 10:07:29;;;;;;;46.83;25.92;;;;;;;16.31;38.75;97386.22;5045211;28;20126;-66
2022/03/26 10:09:57;;;;;;;50.20;27.63;;;;;;;16.43;38.83;97384.13;5048786;28;20531;-66
2022/03/26 10:12:27;;;;;;;47.17;27.35;;;;;;;16.00;38.80;97389.38;5050325;28;20060;-65
2022/03/26 10:14:57;;;;;;;46.05;28.60;;;;;;;16.01;38.68;97388.38;5051324;28;20092;-65
2022/03/26 10:17:28;;;;;;;49.10;27.95;;;;;;;16.55;37.86;97388.19;5052209;28;20087;-65
2022/03/26 10:19:58;;;;;;;46.95;25.80;;;;;;;16.60;38.51;97383.22;5051122;28;20061;-64
2022/03/26 10:22:32;;;;;;;47.17;28.15;;;;;;;16.73;38.25;97380.97;5051164;28;20464;-65
2022/03/26 10:25:04;;;;;;;50.30;25.33;;;;;;;16.33;38.23;97377.09;5051663;28;20447;-65
2022/03/26 10:27:34;;;;;;;48.58;27.25;;;;;;;16.96;37.78;97372.38;5054317;28;20065;-64
2022/03/26 10:30:10;;;;;;;47.42;27.48;;;;;;;17.01;37.58;97370.91;5050808;28;20095;-65
2022/03/26 10:32:43;;;;;;;48.65;25.23;;;;;;;16.74;37.61;97372.00;5051517;28;20526;-64
2022/03/26 10:35:17;;;;;;;45.30;28.58;;;;;;;16.94;36.96;97372.56;5051036;28;20577;-64
2022/03/26 10:37:47;;;;;;;47.63;26.15;;;;;;;16.98;37.34;97360.56;5044762;28;20060;-64
2022/03/26 10:40:21;;;;;;;52.15;27.23;;;;;;;17.43;36.68;97358.50;5049439;28;20068;-67
2022/03/26 10:42:55;;;;;;;45.10;26.83;;;;;;;16.92;37.81;97357.72;5045410;28;20065;-64
2022/03/26 10:45:24;;;;;;;46.90;28.55;;;;;;;17.35;36.41;97353.16;5050606;28;20448;-65
2022/03/26 10:47:55;;;;;;;43.17;26.52;;;;;;;17.33;36.55;97355.97;5048213;28;20049;-66
2022/03/26 10:50:24;;;;;;;48.65;27.05;;;;;;;17.50;36.03;97354.16;5051320;28;20080;-66
2022/03/26 10:52:56;;;;;;;41.22;24.65;;;;;;;17.37;36.39;97361.81;5050661;28;20056;-64
2022/03/26 10:55:25;;;;;;;43.90;25.20;;;;;;;17.50;36.02;97355.00;5050367;28;20069;-64
2022/03/26 10:57:54;;;;;;;46.03;27.40;;;;;;;17.52;35.65;97341.50;5050370;28;20060;-64
2022/03/26 11:00:22;;;;;;;43.70;27.42;;;;;;;18.18;36.00;97351.13;5049984;28;20065;-64
2022/03/26 11:02:50;;;;;;;42.40;25.13;;;;;;;18.24;34.29;97349.63;5051492;28;20144;-66
2022/03/26 11:05:21;;;;;;;42.67;24.95;;;;;;;17.94;34.69;97352.00;5050312;28;21506;-65
2022/03/26 11:07:51;;;;;;;39.60;22.63;;;;;;;17.45;34.39;97351.16;5050332;28;20095;-64
2022/03/26 11:10:24;;;;;;;44.47;25.15;;;;;;;18.10;34.20;97343.16;5050078;28;20447;-64
2022/03/26 11:12:52;;;;;;;44.55;26.25;;;;;;;17.95;34.46;97347.50;5050317;28;20462;-66
2022/03/26 11:15:24;;;;;;;44.33;27.10;;;;;;;18.18;34.24;97342.28;5050395;28;20063;-64
2022/03/26 11:18:06;;;;;;;46.60;27.48;;;;;;;18.35;34.27;97327.88;5049685;28;20088;-65
2022/03/26 11:21:02;;;;;;;47.72;26.77;;;;;;;18.75;33.41;97331.41;5050490;28;20549;-65
2022/03/26 11:23:40;;;;;;;45.15;27.35;;;;;;;18.38;33.12;97332.88;5049628;28;20473;-64
2022/03/26 11:26:23;;;;;;;42.65;25.67;;;;;;;18.29;33.21;97331.25;5054260;28;20057;-65
2022/03/26 11:29:10;;;;;;;43.05;24.75;;;;;;;18.16;33.35;97331.75;5045063;28;20068;-65